sensor_id;sensor_type;location;lat;lon;timestamp;temperature;humidity
21807;DHT22;11065;50.786;7.840;2023-07-08T00:00:48;21.10;38.40
21807;DHT22;11065;50.786;7.840;2023-07-08T00:03:17;21.00;38.50
21807;DHT22;11065;50.786;7.840;2023-07-08T00:05:46;20.90;38.50
21807;DHT22;11065;50.786;7.840;2023-07-08T00:08:17;20.90;38.70
21807;DHT22;11065;50.786;7.840;2023-07-08T00:10:46;20.80;38.80
21807;DHT22;11065;50.786;7.840;2023-07-08T00:13:32;20.80;38.90
21807;DHT22;11065;50.786;7.840;2023-07-08T00:16:00;20.80;38.90
21807;DHT22;11065;50.786;7.840;2023-07-08T00:18:28;20.70;39.10
21807;DHT22;11065;50.786;7.840;2023-07-08T00:24:05;20.60;39.40
21807;DHT22;11065;50.786;7.840;2023-07-08T00:26:33;20.60;39.30
21807;DHT22;11065;50.786;7.840;2023-07-08T00:29:20;20.50;39.30
21807;DHT22;11065;50.786;7.840;2023-07-08T00:31:47;20.50;39.40
21807;DHT22;11065;50.786;7.840;2023-07-08T00:34:21;20.50;39.50
21807;DHT22;11065;50.786;7.840;2023-07-08T00:36:49;20.40;39.90
21807;DHT22;11065;50.786;7.840;2023-07-08T00:39:18;20.40;39.70
21807;DHT22;11065;50.786;7.840;2023-07-08T00:41:47;20.40;39.80
21807;DHT22;11065;50.786;7.840;2023-07-08T00:44:16;20.30;39.90
21807;DHT22;11065;50.786;7.840;2023-07-08T00:46:50;20.30;39.90
21807;DHT22;11065;50.786;7.840;2023-07-08T00:49:28;20.30;40.10
21807;DHT22;11065;50.786;7.840;2023-07-08T00:52:18;20.20;40.20
21807;DHT22;11065;50.786;7.840;2023-07-08T00:54:49;20.20;40.80
21807;DHT22;11065;50.786;7.840;2023-07-08T00:57:31;20.10;40.30
21807;DHT22;11065;50.786;7.840;2023-07-08T01:00:04;20.10;40.90
21807;DHT22;11065;50.786;7.840;2023-07-08T01:02:52;20.10;40.40
21807;DHT22;11065;50.786;7.840;2023-07-08T01:05:25;20.00;40.40
21807;DHT22;11065;50.786;7.840;2023-07-08T01:07:58;20.00;40.50
21807;DHT22;11065;50.786;7.840;2023-07-08T01:10:36;20.00;40.60
21807;DHT22;11065;50.786;7.840;2023-07-08T01:13:05;19.90;40.80
21807;DHT22;11065;50.786;7.840;2023-07-08T01:15:39;19.90;40.70
21807;DHT22;11065;50.786;7.840;2023-07-08T01:18:08;19.90;40.90
21807;DHT22;11065;50.786;7.840;2023-07-08T01:20:39;19.80;40.80
21807;DHT22;11065;50.786;7.840;2023-07-08T01:23:09;19.80;40.90
21807;DHT22;11065;50.786;7.840;2023-07-08T01:25:39;19.80;41.10
21807;DHT22;11065;50.786;7.840;2023-07-08T01:28:09;19.70;41.00
21807;DHT22;11065;50.786;7.840;2023-07-08T01:30:55;19.70;41.10
21807;DHT22;11065;50.786;7.840;2023-07-08T01:33:23;19.70;41.20
21807;DHT22;11065;50.786;7.840;2023-07-08T01:35:52;19.70;41.30
21807;DHT22;11065;50.786;7.840;2023-07-08T01:38:25;19.60;41.30
21807;DHT22;11065;50.786;7.840;2023-07-08T01:40:56;19.60;41.60
21807;DHT22;11065;50.786;7.840;2023-07-08T01:43:25;19.60;41.50
21807;DHT22;11065;50.786;7.840;2023-07-08T01:45:53;19.50;41.50
21807;DHT22;11065;50.786;7.840;2023-07-08T01:48:23;19.50;41.60
21807;DHT22;11065;50.786;7.840;2023-07-08T01:50:56;19.50;41.70
21807;DHT22;11065;50.786;7.840;2023-07-08T01:53:31;19.50;41.80
21807;DHT22;11065;50.786;7.840;2023-07-08T01:55:59;19.50;42.00
21807;DHT22;11065;50.786;7.840;2023-07-08T01:58:27;19.50;41.80
21807;DHT22;11065;50.786;7.840;2023-07-08T02:00:55;19.50;41.90
21807;DHT22;11065;50.786;7.840;2023-07-08T02:03:24;19.40;42.00
21807;DHT22;11065;50.786;7.840;2023-07-08T02:05:54;19.40;42.10
21807;DHT22;11065;50.786;7.840;2023-07-08T02:08:23;19.40;42.20
21807;DHT22;11065;50.786;7.840;2023-07-08T02:10:55;19.40;42.20
21807;DHT22;11065;50.786;7.840;2023-07-08T02:13:24;19.40;42.40
21807;DHT22;11065;50.786;7.840;2023-07-08T02:15:53;19.30;42.30
21807;DHT22;11065;50.786;7.840;2023-07-08T02:18:21;19.30;42.30
21807;DHT22;11065;50.786;7.840;2023-07-08T02:20:58;19.30;42.40
21807;DHT22;11065;50.786;7.840;2023-07-08T02:23:27;19.30;42.40
21807;DHT22;11065;50.786;7.840;2023-07-08T02:26:00;19.30;42.50
21807;DHT22;11065;50.786;7.840;2023-07-08T02:28:28;19.30;42.60
21807;DHT22;11065;50.786;7.840;2023-07-08T02:30:56;19.30;42.60
21807;DHT22;11065;50.786;7.840;2023-07-08T02:33:29;19.30;42.70
21807;DHT22;11065;50.786;7.840;2023-07-08T02:36:00;19.30;42.70
21807;DHT22;11065;50.786;7.840;2023-07-08T02:41:16;19.20;42.90
21807;DHT22;11065;50.786;7.840;2023-07-08T02:43:45;19.20;43.00
21807;DHT22;11065;50.786;7.840;2023-07-08T02:46:13;19.20;43.10
21807;DHT22;11065;50.786;7.840;2023-07-08T02:48:41;19.20;43.30
21807;DHT22;11065;50.786;7.840;2023-07-08T02:53:57;19.10;43.20
21807;DHT22;11065;50.786;7.840;2023-07-08T02:56:26;19.10;43.20
21807;DHT22;11065;50.786;7.840;2023-07-08T02:59:11;19.00;43.30
21807;DHT22;11065;50.786;7.840;2023-07-08T03:01:57;19.00;43.20
21807;DHT22;11065;50.786;7.840;2023-07-08T03:04:25;19.00;43.30
21807;DHT22;11065;50.786;7.840;2023-07-08T03:06:53;19.00;43.40
21807;DHT22;11065;50.786;7.840;2023-07-08T03:09:21;18.90;43.30
21807;DHT22;11065;50.786;7.840;2023-07-08T03:11:50;18.90;43.40
21807;DHT22;11065;50.786;7.840;2023-07-08T03:14:18;18.90;43.50
21807;DHT22;11065;50.786;7.840;2023-07-08T03:16:46;18.90;43.50
21807;DHT22;11065;50.786;7.840;2023-07-08T03:19:32;18.80;43.60
21807;DHT22;11065;50.786;7.840;2023-07-08T03:22:00;18.80;43.60
21807;DHT22;11065;50.786;7.840;2023-07-08T03:24:48;18.80;43.70
21807;DHT22;11065;50.786;7.840;2023-07-08T03:27:21;18.80;44.40
21807;DHT22;11065;50.786;7.840;2023-07-08T03:29:50;18.80;43.90
21807;DHT22;11065;50.786;7.840;2023-07-08T03:32:18;18.80;43.90
21807;DHT22;11065;50.786;7.840;2023-07-08T03:34:46;18.70;43.90
21807;DHT22;11065;50.786;7.840;2023-07-08T03:37:14;18.70;44.00
21807;DHT22;11065;50.786;7.840;2023-07-08T03:39:59;18.80;44.20
21807;DHT22;11065;50.786;7.840;2023-07-08T03:42:35;18.80;44.20
21807;DHT22;11065;50.786;7.840;2023-07-08T03:45:04;18.70;44.20
21807;DHT22;11065;50.786;7.840;2023-07-08T03:47:32;18.80;44.30
21807;DHT22;11065;50.786;7.840;2023-07-08T03:50:19;18.70;44.20
21807;DHT22;11065;50.786;7.840;2023-07-08T03:52:49;18.70;44.30
21807;DHT22;11065;50.786;7.840;2023-07-08T03:55:35;18.80;44.40
21807;DHT22;11065;50.786;7.840;2023-07-08T03:58:05;18.80;44.40
21807;DHT22;11065;50.786;7.840;2023-07-08T04:00:47;18.80;44.60
21807;DHT22;11065;50.786;7.840;2023-07-08T04:03:15;18.80;44.90
21807;DHT22;11065;50.786;7.840;2023-07-08T04:06:01;18.80;44.50
21807;DHT22;11065;50.786;7.840;2023-07-08T04:08:29;18.80;44.50
21807;DHT22;11065;50.786;7.840;2023-07-08T04:10:57;18.80;44.60
21807;DHT22;11065;50.786;7.840;2023-07-08T04:13:43;18.80;44.70
21807;DHT22;11065;50.786;7.840;2023-07-08T04:16:16;18.90;44.80
21807;DHT22;11065;50.786;7.840;2023-07-08T04:18:46;18.90;45.00
21807;DHT22;11065;50.786;7.840;2023-07-08T04:21:17;18.90;44.90
21807;DHT22;11065;50.786;7.840;2023-07-08T04:23:49;18.90;44.90
21807;DHT22;11065;50.786;7.840;2023-07-08T04:26:17;18.90;45.00
21807;DHT22;11065;50.786;7.840;2023-07-08T04:28:46;18.90;45.10
21807;DHT22;11065;50.786;7.840;2023-07-08T04:31:33;18.90;45.10
21807;DHT22;11065;50.786;7.840;2023-07-08T04:34:20;18.90;45.00
21807;DHT22;11065;50.786;7.840;2023-07-08T04:36:48;18.90;45.60
21807;DHT22;11065;50.786;7.840;2023-07-08T04:39:16;18.90;45.10
21807;DHT22;11065;50.786;7.840;2023-07-08T04:41:44;18.90;45.20
21807;DHT22;11065;50.786;7.840;2023-07-08T04:44:13;18.90;45.30
21807;DHT22;11065;50.786;7.840;2023-07-08T04:46:49;19.00;45.50
21807;DHT22;11065;50.786;7.840;2023-07-08T04:49:18;19.00;45.60
21807;DHT22;11065;50.786;7.840;2023-07-08T04:51:46;19.00;45.60
21807;DHT22;11065;50.786;7.840;2023-07-08T04:54:14;19.00;45.70
21807;DHT22;11065;50.786;7.840;2023-07-08T04:56:43;19.10;45.80
21807;DHT22;11065;50.786;7.840;2023-07-08T04:59:15;19.10;45.90
21807;DHT22;11065;50.786;7.840;2023-07-08T05:01:44;19.20;45.90
21807;DHT22;11065;50.786;7.840;2023-07-08T05:04:17;19.20;45.80
21807;DHT22;11065;50.786;7.840;2023-07-08T05:06:45;19.30;46.50
21807;DHT22;11065;50.786;7.840;2023-07-08T05:09:31;19.30;45.90
21807;DHT22;11065;50.786;7.840;2023-07-08T05:11:59;19.40;45.80
21807;DHT22;11065;50.786;7.840;2023-07-08T05:14:28;19.40;45.80
21807;DHT22;11065;50.786;7.840;2023-07-08T05:16:57;19.50;45.70
21807;DHT22;11065;50.786;7.840;2023-07-08T05:19:25;19.60;45.60
21807;DHT22;11065;50.786;7.840;2023-07-08T05:22:12;19.60;45.40
21807;DHT22;11065;50.786;7.840;2023-07-08T05:24:49;19.70;45.60
21807;DHT22;11065;50.786;7.840;2023-07-08T05:27:19;19.80;45.50
21807;DHT22;11065;50.786;7.840;2023-07-08T05:29:48;19.90;45.40
21807;DHT22;11065;50.786;7.840;2023-07-08T05:32:35;19.90;45.30
21807;DHT22;11065;50.786;7.840;2023-07-08T05:35:03;20.00;45.20
21807;DHT22;11065;50.786;7.840;2023-07-08T05:37:34;20.10;45.20
21807;DHT22;11065;50.786;7.840;2023-07-08T05:40:07;20.20;45.20
21807;DHT22;11065;50.786;7.840;2023-07-08T05:42:36;20.30;45.30
21807;DHT22;11065;50.786;7.840;2023-07-08T05:45:23;20.30;45.20
21807;DHT22;11065;50.786;7.840;2023-07-08T05:47:51;20.40;45.20
21807;DHT22;11065;50.786;7.840;2023-07-08T05:50:19;20.40;45.30
21807;DHT22;11065;50.786;7.840;2023-07-08T05:52:47;20.50;45.30
21807;DHT22;11065;50.786;7.840;2023-07-08T05:55:33;20.60;45.40
21807;DHT22;11065;50.786;7.840;2023-07-08T05:58:01;20.60;45.40
21807;DHT22;11065;50.786;7.840;2023-07-08T06:00:42;20.70;45.40
21807;DHT22;11065;50.786;7.840;2023-07-08T06:03:10;20.80;45.40
21807;DHT22;11065;50.786;7.840;2023-07-08T06:06:14;20.90;45.30
21807;DHT22;11065;50.786;7.840;2023-07-08T06:08:42;21.00;45.30
21807;DHT22;11065;50.786;7.840;2023-07-08T06:11:10;21.10;45.30
21807;DHT22;11065;50.786;7.840;2023-07-08T06:13:38;21.20;45.40
21807;DHT22;11065;50.786;7.840;2023-07-08T06:16:07;21.40;45.40
21807;DHT22;11065;50.786;7.840;2023-07-08T06:18:35;21.50;45.40
21807;DHT22;11065;50.786;7.840;2023-07-08T06:21:21;21.60;45.30
21807;DHT22;11065;50.786;7.840;2023-07-08T06:23:49;21.80;45.20
21807;DHT22;11065;50.786;7.840;2023-07-08T06:26:17;22.00;45.30
21807;DHT22;11065;50.786;7.840;2023-07-08T06:28:45;22.10;45.30
21807;DHT22;11065;50.786;7.840;2023-07-08T06:31:14;22.20;45.20
21807;DHT22;11065;50.786;7.840;2023-07-08T06:33:42;22.40;45.10
21807;DHT22;11065;50.786;7.840;2023-07-08T06:36:10;22.50;45.10
21807;DHT22;11065;50.786;7.840;2023-07-08T06:38:39;22.50;44.90
21807;DHT22;11065;50.786;7.840;2023-07-08T06:41:28;22.60;44.80
21807;DHT22;11065;50.786;7.840;2023-07-08T06:43:56;22.60;44.70
21807;DHT22;11065;50.786;7.840;2023-07-08T06:46:44;22.70;44.70
21807;DHT22;11065;50.786;7.840;2023-07-08T06:49:12;22.70;44.50
21807;DHT22;11065;50.786;7.840;2023-07-08T06:51:39;22.80;44.40
21807;DHT22;11065;50.786;7.840;2023-07-08T06:54:09;22.80;44.30
21807;DHT22;11065;50.786;7.840;2023-07-08T06:56:57;22.80;44.20
21807;DHT22;11065;50.786;7.840;2023-07-08T06:59:25;22.80;44.20
21807;DHT22;11065;50.786;7.840;2023-07-08T07:01:54;22.90;44.00
21807;DHT22;11065;50.786;7.840;2023-07-08T07:04:22;22.90;44.00
21807;DHT22;11065;50.786;7.840;2023-07-08T07:06:50;23.00;44.00
21807;DHT22;11065;50.786;7.840;2023-07-08T07:09:18;23.00;43.90
21807;DHT22;11065;50.786;7.840;2023-07-08T07:12:05;23.10;43.90
21807;DHT22;11065;50.786;7.840;2023-07-08T07:14:33;23.20;43.80
21807;DHT22;11065;50.786;7.840;2023-07-08T07:17:24;23.20;43.80
21807;DHT22;11065;50.786;7.840;2023-07-08T07:20:10;23.30;43.70
21807;DHT22;11065;50.786;7.840;2023-07-08T07:22:38;23.40;43.70
21807;DHT22;11065;50.786;7.840;2023-07-08T07:25:07;23.50;43.70
21807;DHT22;11065;50.786;7.840;2023-07-08T07:27:38;23.60;43.70
21807;DHT22;11065;50.786;7.840;2023-07-08T07:30:07;23.60;43.50
21807;DHT22;11065;50.786;7.840;2023-07-08T07:32:41;23.80;43.50
21807;DHT22;11065;50.786;7.840;2023-07-08T07:35:26;23.80;43.40
21807;DHT22;11065;50.786;7.840;2023-07-08T07:37:54;24.00;43.50
21807;DHT22;11065;50.786;7.840;2023-07-08T07:40:22;24.10;43.40
21807;DHT22;11065;50.786;7.840;2023-07-08T07:42:50;24.20;43.40
21807;DHT22;11065;50.786;7.840;2023-07-08T07:45:18;24.40;43.40
21807;DHT22;11065;50.786;7.840;2023-07-08T07:47:50;24.50;43.30
21807;DHT22;11065;50.786;7.840;2023-07-08T07:50:18;24.60;43.20
21807;DHT22;11065;50.786;7.840;2023-07-08T07:52:55;24.80;43.00
21807;DHT22;11065;50.786;7.840;2023-07-08T07:55:40;24.90;42.90
21807;DHT22;11065;50.786;7.840;2023-07-08T07:58:09;25.10;42.80
21807;DHT22;11065;50.786;7.840;2023-07-08T08:00:38;25.30;42.80
21807;DHT22;11065;50.786;7.840;2023-07-08T08:03:07;25.50;42.80
21807;DHT22;11065;50.786;7.840;2023-07-08T08:05:35;25.70;42.90
21807;DHT22;11065;50.786;7.840;2023-07-08T08:08:03;26.00;42.80
21807;DHT22;11065;50.786;7.840;2023-07-08T08:10:31;26.20;42.60
21807;DHT22;11065;50.786;7.840;2023-07-08T08:13:00;26.50;42.50
21807;DHT22;11065;50.786;7.840;2023-07-08T08:15:28;26.70;42.20
21807;DHT22;11065;50.786;7.840;2023-07-08T08:17:56;26.90;42.00
21807;DHT22;11065;50.786;7.840;2023-07-08T08:20:26;27.10;41.60
21807;DHT22;11065;50.786;7.840;2023-07-08T08:22:54;27.30;41.30
21807;DHT22;11065;50.786;7.840;2023-07-08T08:25:24;27.50;41.30
21807;DHT22;11065;50.786;7.840;2023-07-08T08:27:52;27.70;41.10
21807;DHT22;11065;50.786;7.840;2023-07-08T08:30:20;27.90;41.10
21807;DHT22;11065;50.786;7.840;2023-07-08T08:32:48;28.10;40.90
21807;DHT22;11065;50.786;7.840;2023-07-08T08:35:16;28.20;40.60
21807;DHT22;11065;50.786;7.840;2023-07-08T08:37:45;28.50;40.40
21807;DHT22;11065;50.786;7.840;2023-07-08T08:40:15;28.60;40.00
21807;DHT22;11065;50.786;7.840;2023-07-08T08:42:52;28.70;39.70
21807;DHT22;11065;50.786;7.840;2023-07-08T08:45:43;28.80;39.30
21807;DHT22;11065;50.786;7.840;2023-07-08T08:48:20;28.90;39.00
21807;DHT22;11065;50.786;7.840;2023-07-08T08:50:51;28.90;39.10
21807;DHT22;11065;50.786;7.840;2023-07-08T08:53:24;29.00;38.80
21807;DHT22;11065;50.786;7.840;2023-07-08T08:55:58;29.10;38.50
21807;DHT22;11065;50.786;7.840;2023-07-08T08:58:51;29.20;37.60
21807;DHT22;11065;50.786;7.840;2023-07-08T09:01:20;29.20;37.60
21807;DHT22;11065;50.786;7.840;2023-07-08T09:03:53;29.20;37.80
21807;DHT22;11065;50.786;7.840;2023-07-08T09:06:42;29.40;37.80
21807;DHT22;11065;50.786;7.840;2023-07-08T09:09:17;29.40;37.20
21807;DHT22;11065;50.786;7.840;2023-07-08T09:11:51;29.50;37.10
21807;DHT22;11065;50.786;7.840;2023-07-08T09:14:25;29.60;37.10
21807;DHT22;11065;50.786;7.840;2023-07-08T09:16:58;29.70;37.20
21807;DHT22;11065;50.786;7.840;2023-07-08T09:19:32;29.80;36.90
21807;DHT22;11065;50.786;7.840;2023-07-08T09:22:04;29.90;36.90
21807;DHT22;11065;50.786;7.840;2023-07-08T09:24:43;30.20;36.90
21807;DHT22;11065;50.786;7.840;2023-07-08T09:27:30;30.40;35.90
21807;DHT22;11065;50.786;7.840;2023-07-08T09:29:58;30.80;37.00
21807;DHT22;11065;50.786;7.840;2023-07-08T09:32:27;31.10;36.90
21807;DHT22;11065;50.786;7.840;2023-07-08T09:35:18;31.50;36.50
21807;DHT22;11065;50.786;7.840;2023-07-08T09:37:48;32.00;36.40
21807;DHT22;11065;50.786;7.840;2023-07-08T09:40:20;32.50;36.70
21807;DHT22;11065;50.786;7.840;2023-07-08T09:42:50;33.10;36.50
21807;DHT22;11065;50.786;7.840;2023-07-08T09:45:22;33.50;36.10
21807;DHT22;11065;50.786;7.840;2023-07-08T09:47:53;34.10;36.10
21807;DHT22;11065;50.786;7.840;2023-07-08T09:50:23;34.70;35.70
21807;DHT22;11065;50.786;7.840;2023-07-08T09:53:11;35.30;35.60
21807;DHT22;11065;50.786;7.840;2023-07-08T09:55:41;36.00;34.60
21807;DHT22;11065;50.786;7.840;2023-07-08T09:58:13;36.60;33.80
21807;DHT22;11065;50.786;7.840;2023-07-08T10:00:42;37.20;33.80
21807;DHT22;11065;50.786;7.840;2023-07-08T10:03:28;37.80;33.60
21807;DHT22;11065;50.786;7.840;2023-07-08T10:06:17;38.30;31.30
21807;DHT22;11065;50.786;7.840;2023-07-08T10:08:46;38.80;32.30
21807;DHT22;11065;50.786;7.840;2023-07-08T10:11:22;39.30;31.80
21807;DHT22;11065;50.786;7.840;2023-07-08T10:13:53;39.80;30.80
21807;DHT22;11065;50.786;7.840;2023-07-08T10:16:38;40.20;31.10
21807;DHT22;11065;50.786;7.840;2023-07-08T10:19:28;40.70;30.90
21807;DHT22;11065;50.786;7.840;2023-07-08T10:22:11;41.20;30.60
21807;DHT22;11065;50.786;7.840;2023-07-08T10:24:55;41.60;29.60
21807;DHT22;11065;50.786;7.840;2023-07-08T10:27:33;42.10;28.80
21807;DHT22;11065;50.786;7.840;2023-07-08T10:30:13;42.40;28.90
21807;DHT22;11065;50.786;7.840;2023-07-08T10:32:49;42.90;28.00
21807;DHT22;11065;50.786;7.840;2023-07-08T10:35:27;43.10;27.50
21807;DHT22;11065;50.786;7.840;2023-07-08T10:38:10;43.40;27.90
21807;DHT22;11065;50.786;7.840;2023-07-08T10:43:59;43.80;27.00
21807;DHT22;11065;50.786;7.840;2023-07-08T10:46:38;44.00;26.80
21807;DHT22;11065;50.786;7.840;2023-07-08T10:49:35;44.30;27.30
21807;DHT22;11065;50.786;7.840;2023-07-08T10:55:39;45.20;27.30
21807;DHT22;11065;50.786;7.840;2023-07-08T11:01:44;46.00;26.50
21807;DHT22;11065;50.786;7.840;2023-07-08T11:04:45;46.30;25.80
21807;DHT22;11065;50.786;7.840;2023-07-08T11:07:28;46.50;25.50
21807;DHT22;11065;50.786;7.840;2023-07-08T11:10:00;46.70;25.40
21807;DHT22;11065;50.786;7.840;2023-07-08T11:12:45;46.90;25.40
21807;DHT22;11065;50.786;7.840;2023-07-08T11:15:20;47.00;24.70
21807;DHT22;11065;50.786;7.840;2023-07-08T11:17:56;47.10;24.90
21807;DHT22;11065;50.786;7.840;2023-07-08T11:20:34;47.10;23.80
21807;DHT22;11065;50.786;7.840;2023-07-08T11:23:23;47.00;23.50
21807;DHT22;11065;50.786;7.840;2023-07-08T11:26:07;46.80;23.90
21807;DHT22;11065;50.786;7.840;2023-07-08T11:31:27;46.80;24.50
21807;DHT22;11065;50.786;7.840;2023-07-08T11:33:59;46.90;24.20
21807;DHT22;11065;50.786;7.840;2023-07-08T11:36:48;47.00;24.10
21807;DHT22;11065;50.786;7.840;2023-07-08T11:39:32;47.10;24.00
21807;DHT22;11065;50.786;7.840;2023-07-08T11:42:21;47.20;23.90
21807;DHT22;11065;50.786;7.840;2023-07-08T11:44:51;47.30;23.50
21807;DHT22;11065;50.786;7.840;2023-07-08T11:47:25;47.40;24.00
21807;DHT22;11065;50.786;7.840;2023-07-08T11:49:58;47.60;23.80
21807;DHT22;11065;50.786;7.840;2023-07-08T11:52:26;47.70;24.00
21807;DHT22;11065;50.786;7.840;2023-07-08T11:55:02;47.90;24.00
21807;DHT22;11065;50.786;7.840;2023-07-08T11:57:38;47.90;23.90
21807;DHT22;11065;50.786;7.840;2023-07-08T12:00:16;48.00;23.60
21807;DHT22;11065;50.786;7.840;2023-07-08T12:02:50;48.10;23.60
21807;DHT22;11065;50.786;7.840;2023-07-08T12:05:29;48.20;23.20
21807;DHT22;11065;50.786;7.840;2023-07-08T12:07:58;48.20;23.10
21807;DHT22;11065;50.786;7.840;2023-07-08T12:10:32;48.00;23.30
21807;DHT22;11065;50.786;7.840;2023-07-08T12:13:02;48.00;23.20
21807;DHT22;11065;50.786;7.840;2023-07-08T12:15:32;47.80;23.00
21807;DHT22;11065;50.786;7.840;2023-07-08T12:18:06;47.60;23.00
21807;DHT22;11065;50.786;7.840;2023-07-08T12:21:00;47.50;23.00
21807;DHT22;11065;50.786;7.840;2023-07-08T12:23:29;47.30;22.90
21807;DHT22;11065;50.786;7.840;2023-07-08T12:25:57;47.20;22.80
21807;DHT22;11065;50.786;7.840;2023-07-08T12:28:25;47.00;23.10
21807;DHT22;11065;50.786;7.840;2023-07-08T12:33:43;46.60;23.00
21807;DHT22;11065;50.786;7.840;2023-07-08T12:36:17;46.40;23.10
21807;DHT22;11065;50.786;7.840;2023-07-08T12:38:47;46.40;23.40
21807;DHT22;11065;50.786;7.840;2023-07-08T12:41:35;46.40;23.40
21807;DHT22;11065;50.786;7.840;2023-07-08T12:44:25;46.30;23.10
21807;DHT22;11065;50.786;7.840;2023-07-08T12:47:12;46.20;23.00
21807;DHT22;11065;50.786;7.840;2023-07-08T12:49:40;46.00;23.20
21807;DHT22;11065;50.786;7.840;2023-07-08T12:52:26;45.90;23.30
21807;DHT22;11065;50.786;7.840;2023-07-08T12:54:54;45.80;23.50
21807;DHT22;11065;50.786;7.840;2023-07-08T13:00:14;45.70;23.40
21807;DHT22;11065;50.786;7.840;2023-07-08T13:02:45;45.60;23.30
21807;DHT22;11065;50.786;7.840;2023-07-08T13:05:14;45.60;23.30
21807;DHT22;11065;50.786;7.840;2023-07-08T13:07:44;45.50;23.30
21807;DHT22;11065;50.786;7.840;2023-07-08T13:10:18;45.50;23.30
21807;DHT22;11065;50.786;7.840;2023-07-08T13:13:22;45.40;23.10
21807;DHT22;11065;50.786;7.840;2023-07-08T13:15:51;45.30;22.90
21807;DHT22;11065;50.786;7.840;2023-07-08T13:18:32;45.20;23.10
21807;DHT22;11065;50.786;7.840;2023-07-08T13:21:00;45.10;23.10
21807;DHT22;11065;50.786;7.840;2023-07-08T13:23:32;45.00;23.30
21807;DHT22;11065;50.786;7.840;2023-07-08T13:26:20;44.90;23.10
21807;DHT22;11065;50.786;7.840;2023-07-08T13:28:49;44.60;23.10
21807;DHT22;11065;50.786;7.840;2023-07-08T13:31:20;44.50;23.30
21807;DHT22;11065;50.786;7.840;2023-07-08T13:33:53;44.40;23.50
21807;DHT22;11065;50.786;7.840;2023-07-08T13:36:34;44.30;23.70
21807;DHT22;11065;50.786;7.840;2023-07-08T13:39:06;44.30;23.60
21807;DHT22;11065;50.786;7.840;2023-07-08T13:41:35;44.30;23.70
21807;DHT22;11065;50.786;7.840;2023-07-08T13:44:04;44.30;23.70
21807;DHT22;11065;50.786;7.840;2023-07-08T13:46:35;44.30;23.50
21807;DHT22;11065;50.786;7.840;2023-07-08T13:49:25;44.20;23.30
21807;DHT22;11065;50.786;7.840;2023-07-08T13:54:56;43.90;23.40
21807;DHT22;11065;50.786;7.840;2023-07-08T13:57:30;43.70;23.70
21807;DHT22;11065;50.786;7.840;2023-07-08T14:00:12;43.70;23.70
21807;DHT22;11065;50.786;7.840;2023-07-08T14:02:44;43.60;23.90
21807;DHT22;11065;50.786;7.840;2023-07-08T14:05:14;43.60;23.90
21807;DHT22;11065;50.786;7.840;2023-07-08T14:07:46;43.60;23.90
21807;DHT22;11065;50.786;7.840;2023-07-08T14:10:16;43.60;23.70
21807;DHT22;11065;50.786;7.840;2023-07-08T14:12:44;43.50;23.60
21807;DHT22;11065;50.786;7.840;2023-07-08T14:15:12;43.50;23.60
21807;DHT22;11065;50.786;7.840;2023-07-08T14:17:40;43.40;23.60
21807;DHT22;11065;50.786;7.840;2023-07-08T14:20:11;43.30;23.70
21807;DHT22;11065;50.786;7.840;2023-07-08T14:22:39;43.20;23.80
21807;DHT22;11065;50.786;7.840;2023-07-08T14:25:09;43.20;23.90
21807;DHT22;11065;50.786;7.840;2023-07-08T14:27:39;43.10;23.80
21807;DHT22;11065;50.786;7.840;2023-07-08T14:30:09;43.00;23.70
21807;DHT22;11065;50.786;7.840;2023-07-08T14:32:38;43.00;23.60
21807;DHT22;11065;50.786;7.840;2023-07-08T14:35:14;42.90;23.60
21807;DHT22;11065;50.786;7.840;2023-07-08T14:37:43;42.80;24.00
21807;DHT22;11065;50.786;7.840;2023-07-08T14:40:23;42.60;24.00
21807;DHT22;11065;50.786;7.840;2023-07-08T14:42:58;42.60;23.90
21807;DHT22;11065;50.786;7.840;2023-07-08T14:45:28;42.60;24.10
21807;DHT22;11065;50.786;7.840;2023-07-08T14:47:56;42.50;24.00
21807;DHT22;11065;50.786;7.840;2023-07-08T14:50:24;42.40;23.90
21807;DHT22;11065;50.786;7.840;2023-07-08T14:52:56;42.40;23.90
21807;DHT22;11065;50.786;7.840;2023-07-08T14:55:24;42.30;24.10
21807;DHT22;11065;50.786;7.840;2023-07-08T14:57:54;42.30;24.00
21807;DHT22;11065;50.786;7.840;2023-07-08T15:00:23;42.10;24.10
21807;DHT22;11065;50.786;7.840;2023-07-08T15:02:51;42.10;24.20
21807;DHT22;11065;50.786;7.840;2023-07-08T15:05:22;42.10;24.20
21807;DHT22;11065;50.786;7.840;2023-07-08T15:07:51;42.00;24.30
21807;DHT22;11065;50.786;7.840;2023-07-08T15:10:22;42.00;24.40
21807;DHT22;11065;50.786;7.840;2023-07-08T15:12:51;41.90;24.30
21807;DHT22;11065;50.786;7.840;2023-07-08T15:15:27;42.00;24.30
21807;DHT22;11065;50.786;7.840;2023-07-08T15:17:55;42.00;24.40
21807;DHT22;11065;50.786;7.840;2023-07-08T15:20:25;42.00;24.40
21807;DHT22;11065;50.786;7.840;2023-07-08T15:22:53;42.10;24.40
21807;DHT22;11065;50.786;7.840;2023-07-08T15:25:22;42.10;24.30
21807;DHT22;11065;50.786;7.840;2023-07-08T15:27:52;42.10;24.30
21807;DHT22;11065;50.786;7.840;2023-07-08T15:30:23;42.10;24.30
21807;DHT22;11065;50.786;7.840;2023-07-08T15:32:52;42.00;24.40
21807;DHT22;11065;50.786;7.840;2023-07-08T15:35:23;41.90;24.40
21807;DHT22;11065;50.786;7.840;2023-07-08T15:37:52;41.80;24.30
21807;DHT22;11065;50.786;7.840;2023-07-08T15:40:22;41.80;24.50
21807;DHT22;11065;50.786;7.840;2023-07-08T15:42:52;41.70;24.40
21807;DHT22;11065;50.786;7.840;2023-07-08T15:45:24;41.60;24.40
21807;DHT22;11065;50.786;7.840;2023-07-08T15:47:52;41.60;24.60
21807;DHT22;11065;50.786;7.840;2023-07-08T15:50:22;41.50;24.60
21807;DHT22;11065;50.786;7.840;2023-07-08T15:52:51;41.40;24.70
21807;DHT22;11065;50.786;7.840;2023-07-08T15:55:24;41.30;24.60
21807;DHT22;11065;50.786;7.840;2023-07-08T15:57:54;41.20;24.70
21807;DHT22;11065;50.786;7.840;2023-07-08T16:00:26;41.10;24.50
21807;DHT22;11065;50.786;7.840;2023-07-08T16:02:58;40.90;24.50
21807;DHT22;11065;50.786;7.840;2023-07-08T16:05:27;40.80;24.70
21807;DHT22;11065;50.786;7.840;2023-07-08T16:07:55;40.60;24.60
21807;DHT22;11065;50.786;7.840;2023-07-08T16:10:24;40.40;24.80
21807;DHT22;11065;50.786;7.840;2023-07-08T16:12:53;40.20;24.80
21807;DHT22;11065;50.786;7.840;2023-07-08T16:15:27;40.10;24.90
21807;DHT22;11065;50.786;7.840;2023-07-08T16:17:55;40.10;25.40
21807;DHT22;11065;50.786;7.840;2023-07-08T16:20:26;40.00;25.20
21807;DHT22;11065;50.786;7.840;2023-07-08T16:22:54;40.00;25.30
21807;DHT22;11065;50.786;7.840;2023-07-08T16:25:27;40.00;25.20
21807;DHT22;11065;50.786;7.840;2023-07-08T16:27:57;40.00;25.30
21807;DHT22;11065;50.786;7.840;2023-07-08T16:30:27;40.00;25.30
21807;DHT22;11065;50.786;7.840;2023-07-08T16:32:55;40.00;25.40
21807;DHT22;11065;50.786;7.840;2023-07-08T16:35:24;39.90;25.00
21807;DHT22;11065;50.786;7.840;2023-07-08T16:37:53;39.90;25.10